Camellia Maru — JG4619 — position and weather

sailwx.info

Track history (hours):
 
Tides and Currents Weather Stations Pressure Air Temp Water Temp Dewpoint Dewpoint Depression Visibility Wind Speed Wind Dir Waves Ship Positions

Camellia Maru

Last reported at 2014-Jun-11 14:30 UTC. Time now 2014-Oct-25 11:20 UTC.
Position N 34°36' E 134°55'.
Warning: this ship's position is months out of date.

Length 103 m; draft 4.8 m.

Type: Passenger vessel. MMSI: 431100840.

Date/timePositionNaut miles runAvg speedWind from/ knotsBaromVisibWave heightAir tempDewpointWater temp
2014-Jun-11 14:30N 34°36' E 134°55'9 9.2
2014-Jun-11 13:33N 34°33' E 135°05'1212.5
2014-Jun-11 12:33N 34°21' E 135°01'1312.6
2014-Jun-11 11:33N 34°09' E 134°59'20910.3
2014-Jun-10 15:13N 34°46' E 139°09'16 9.9
2014-Jun-10 13:33N 34°57' E 139°23'1110.6
2014-Jun-10 12:33N 35°01' E 139°35'1313.2
2014-Jun-10 11:33N 35°11' E 139°46'1212.4
2014-Jun-10 10:33N 35°23' E 139°42'1211.9
2014-Jun-10 09:33N 35°34' E 139°50'6 6.4
2014-Jun-10 08:33N 35°39' E 139°46'0 0.0
2014-Jun-10 07:33N 35°39' E 139°46'0 0.0
2014-Jun-10 06:30N 35°39' E 139°46'0 0.0
2014-Jun-10 03:27N 35°39' E 139°46'0 0.0
2014-Jun-10 02:24N 35°39' E 139°46'0 0.0
2014-Jun-10 01:33N 35°39' E 139°46'0 0.0
2014-Jun-10 00:24N 35°39' E 139°46'0 0.0
2014-Jun-09 23:30N 35°39' E 139°46'0 0.0
2014-Jun-08 12:33N 35°39' E 139°46'0 0.0
2014-Jun-08 11:33N 35°39' E 139°46'4 4.1
2014-Jun-08 10:33N 35°35' E 139°48'10 9.9
2014-Jun-08 09:33N 35°27' E 139°40'6 5.5
2014-Jun-08 08:33N 35°22' E 139°43'1413.7
2014-Jun-08 07:33N 35°09' E 139°46'1716.6
2014-Jun-08 06:33N 34°57' E 139°32'9 0.8
2014-Jun-07 20:18N 34°50' E 139°25'9 4.5
2014-Jun-07 18:21N 34°54' E 139°35'8 9.5
2014-Jun-07 17:33N 35°00' E 139°39'1110.6
2014-Jun-07 16:33N 35°10' E 139°45'1110.8
2014-Jun-07 15:33N 35°20' E 139°42'7 7.3
2014-Jun-07 14:33N 35°27' E 139°39'1111.2
2014-Jun-07 13:33N 35°33' E 139°51'8 7.6
2014-Jun-07 12:34N 35°39' E 139°46'0 0.0
2014-Jun-07 11:33N 35°39' E 139°46'1 1.2
2014-Jun-07 10:33N 35°38' E 139°46'1111.0
2014-Jun-07 09:33N 35°27' E 139°45'4 4.2
2014-Jun-07 08:34N 35°23' E 139°43'1313.4
2014-Jun-07 07:34N 35°10' E 139°47'1514.9
2014-Jun-07 06:33N 34°58' E 139°36'18 1.7
2014-Jun-06 20:11N 34°49' E 139°17'7 9.1
2014-Jun-06 19:28N 34°56' E 139°16'10 9.4
2014-Jun-06 18:25N 35°03' E 139°24'910.3
2014-Jun-06 17:33N 35°04' E 139°35'1110.8
2014-Jun-06 16:33N 35°10' E 139°45'1010.2
2014-Jun-06 15:33N 35°20' E 139°42'7 7.4
2014-Jun-06 14:33N 35°27' E 139°39'1110.9
2014-Jun-06 13:34N 35°33' E 139°50'8 7.4
2014-Jun-06 12:32N 35°39' E 139°46'0 0.0
2014-Jun-06 11:32N 35°39' E 139°46'0 0.0
2014-Jun-06 10:26N 35°39' E 139°46'0 0.0
2014-Jun-06 09:26N 35°39' E 139°46'0 0.0
2014-Jun-06 08:23N 35°39' E 139°46'0 0.0
2014-Jun-06 07:29N 35°39' E 139°46'0 0.0
2014-Jun-06 06:17N 35°39' E 139°46'0 0.0
2014-Jun-06 05:32N 35°39' E 139°46'0 0.0
2014-Jun-06 04:26N 35°39' E 139°46'0 0.0
2014-Jun-06 03:32N 35°39' E 139°46'0 0.0
2014-Jun-06 02:29N 35°39' E 139°46'0 0.0
2014-Jun-06 01:29N 35°39' E 139°46'0 0.0
2014-Jun-06 00:32N 35°39' E 139°46'0 0.0
2014-Jun-05 23:26N 35°39' E 139°46'0 0.0
2014-Jun-05 22:26N 35°39' E 139°46'0 0.0
2014-Jun-05 21:29N 35°39' E 139°46'0 0.0
2014-Jun-05 20:32N 35°39' E 139°46'0 0.0
2014-Jun-05 19:16N 35°39' E 139°46'0 0.0
2014-Jun-05 18:32N 35°39' E 139°46'0 0.0
2014-Jun-05 17:19N 35°39' E 139°46'0 0.0
2014-Jun-05 16:32N 35°39' E 139°46'0 0.0
2014-Jun-05 15:20N 35°39' E 139°46'0 0.0
2014-Jun-05 14:26N 35°39' E 139°46'0 0.0
2014-Jun-05 13:32N 35°39' E 139°46'0 0.0
2014-Jun-05 12:28N 35°39' E 139°46'0 0.0
2014-Jun-05 11:31N 35°39' E 139°46'0 0.0
2014-Jun-05 10:32N 35°39' E 139°46'0 0.0
2014-Jun-05 09:33N 35°39' E 139°46'0 0.0
2014-Jun-05 08:30N 35°39' E 139°46'0 0.0
2014-Jun-05 07:33N 35°39' E 139°46'3 2.7
2014-Jun-05 06:33N 35°36' E 139°46'1111.2
2014-Jun-05 05:33N 35°25' E 139°48'1110.7
2014-Jun-05 04:33N 35°15' E 139°47'1212.5
2014-Jun-05 03:33N 35°02' E 139°47'4 4.1
2014-Jun-05 02:33N 34°60' E 139°51'0 0.0
2014-Jun-05 01:33N 34°60' E 139°51'0 0.0
2014-Jun-05 00:33N 34°60' E 139°51'0 0.0
2014-Jun-04 23:33N 34°60' E 139°51'1 0.8
2014-Jun-04 22:33N 34°60' E 139°50'10 9.6
2014-Jun-04 21:33N 34°58' E 139°39'1010.3
2014-Jun-04 20:33N 34°52' E 139°28'226 9.4
2014-Jun-03 20:31N 34°14' E 134°57'1414.3
2014-Jun-03 19:33N 34°28' E 135°02'10 8.8
2014-Jun-03 18:28N 34°35' E 134°55'233 5.0
2014-Jun-01 20:14N 33°54' E 130°17'913.8
2014-Jun-01 19:33N 33°49' E 130°08'1615.5
2014-Jun-01 18:32N 33°41' E 129°52'  
Track history (hours):
 
Tides and Currents Weather Stations Pressure Air Temp Water Temp Dewpoint Dewpoint Depression Visibility Wind Speed Wind Dir Waves Ship Positions

Camellia Maru

Last reported at 2014-Jun-11 14:30 UTC. Time now 2014-Oct-25 11:21 UTC.
Position N 34°36' E 134°55'.
Warning: this ship's position is months out of date.

Length 103 m; draft 4.8 m.

Type: Passenger vessel. MMSI: 431100840.

Date/timePositionNaut miles runAvg speedWind from/ knotsBaromVisibWave heightAir tempDewpointWater temp
2014-Jun-11 14:30N 34°36' E 134°55'9 9.2
2014-Jun-11 13:33N 34°33' E 135°05'1212.5
2014-Jun-11 12:33N 34°21' E 135°01'1312.6
2014-Jun-11 11:33N 34°09' E 134°59'20910.3
2014-Jun-10 15:13N 34°46' E 139°09'16 9.9
2014-Jun-10 13:33N 34°57' E 139°23'1110.6
2014-Jun-10 12:33N 35°01' E 139°35'1313.2
2014-Jun-10 11:33N 35°11' E 139°46'1212.4
2014-Jun-10 10:33N 35°23' E 139°42'1211.9
2014-Jun-10 09:33N 35°34' E 139°50'6 6.4
2014-Jun-10 08:33N 35°39' E 139°46'0 0.0
2014-Jun-10 07:33N 35°39' E 139°46'0 0.0
2014-Jun-10 06:30N 35°39' E 139°46'0 0.0
2014-Jun-10 03:27N 35°39' E 139°46'0 0.0
2014-Jun-10 02:24N 35°39' E 139°46'0 0.0
2014-Jun-10 01:33N 35°39' E 139°46'0 0.0
2014-Jun-10 00:24N 35°39' E 139°46'0 0.0
2014-Jun-09 23:30N 35°39' E 139°46'0 0.0
2014-Jun-08 12:33N 35°39' E 139°46'0 0.0
2014-Jun-08 11:33N 35°39' E 139°46'4 4.1
2014-Jun-08 10:33N 35°35' E 139°48'10 9.9
2014-Jun-08 09:33N 35°27' E 139°40'6 5.5
2014-Jun-08 08:33N 35°22' E 139°43'1413.7
2014-Jun-08 07:33N 35°09' E 139°46'1716.6
2014-Jun-08 06:33N 34°57' E 139°32'9 0.8
2014-Jun-07 20:18N 34°50' E 139°25'9 4.5
2014-Jun-07 18:21N 34°54' E 139°35'8 9.5
2014-Jun-07 17:33N 35°00' E 139°39'1110.6
2014-Jun-07 16:33N 35°10' E 139°45'1110.8
2014-Jun-07 15:33N 35°20' E 139°42'7 7.3
2014-Jun-07 14:33N 35°27' E 139°39'1111.2
2014-Jun-07 13:33N 35°33' E 139°51'8 7.6
2014-Jun-07 12:34N 35°39' E 139°46'0 0.0
2014-Jun-07 11:33N 35°39' E 139°46'1 1.2
2014-Jun-07 10:33N 35°38' E 139°46'1111.0
2014-Jun-07 09:33N 35°27' E 139°45'4 4.2
2014-Jun-07 08:34N 35°23' E 139°43'1313.4
2014-Jun-07 07:34N 35°10' E 139°47'1514.9
2014-Jun-07 06:33N 34°58' E 139°36'18 1.7
2014-Jun-06 20:11N 34°49' E 139°17'7 9.1
2014-Jun-06 19:28N 34°56' E 139°16'10 9.4
2014-Jun-06 18:25N 35°03' E 139°24'910.3
2014-Jun-06 17:33N 35°04' E 139°35'1110.8
2014-Jun-06 16:33N 35°10' E 139°45'1010.2
2014-Jun-06 15:33N 35°20' E 139°42'7 7.4
2014-Jun-06 14:33N 35°27' E 139°39'1110.9
2014-Jun-06 13:34N 35°33' E 139°50'8 7.4
2014-Jun-06 12:32N 35°39' E 139°46'0 0.0
2014-Jun-06 11:32N 35°39' E 139°46'0 0.0
2014-Jun-06 10:26N 35°39' E 139°46'0 0.0
2014-Jun-06 09:26N 35°39' E 139°46'0 0.0
2014-Jun-06 08:23N 35°39' E 139°46'0 0.0
2014-Jun-06 07:29N 35°39' E 139°46'0 0.0
2014-Jun-06 06:17N 35°39' E 139°46'0 0.0
2014-Jun-06 05:32N 35°39' E 139°46'0 0.0
2014-Jun-06 04:26N 35°39' E 139°46'0 0.0
2014-Jun-06 03:32N 35°39' E 139°46'0 0.0
2014-Jun-06 02:29N 35°39' E 139°46'0 0.0
2014-Jun-06 01:29N 35°39' E 139°46'0 0.0
2014-Jun-06 00:32N 35°39' E 139°46'0 0.0
2014-Jun-05 23:26N 35°39' E 139°46'0 0.0
2014-Jun-05 22:26N 35°39' E 139°46'0 0.0
2014-Jun-05 21:29N 35°39' E 139°46'0 0.0
2014-Jun-05 20:32N 35°39' E 139°46'0 0.0
2014-Jun-05 19:16N 35°39' E 139°46'0 0.0
2014-Jun-05 18:32N 35°39' E 139°46'0 0.0
2014-Jun-05 17:19N 35°39' E 139°46'0 0.0
2014-Jun-05 16:32N 35°39' E 139°46'0 0.0
2014-Jun-05 15:20N 35°39' E 139°46'0 0.0
2014-Jun-05 14:26N 35°39' E 139°46'0 0.0
2014-Jun-05 13:32N 35°39' E 139°46'0 0.0
2014-Jun-05 12:28N 35°39' E 139°46'0 0.0
2014-Jun-05 11:31N 35°39' E 139°46'0 0.0
2014-Jun-05 10:32N 35°39' E 139°46'0 0.0
2014-Jun-05 09:33N 35°39' E 139°46'0 0.0
2014-Jun-05 08:30N 35°39' E 139°46'0 0.0
2014-Jun-05 07:33N 35°39' E 139°46'3 2.7
2014-Jun-05 06:33N 35°36' E 139°46'1111.2
2014-Jun-05 05:33N 35°25' E 139°48'1110.7
2014-Jun-05 04:33N 35°15' E 139°47'1212.5
2014-Jun-05 03:33N 35°02' E 139°47'4 4.1
2014-Jun-05 02:33N 34°60' E 139°51'0 0.0
2014-Jun-05 01:33N 34°60' E 139°51'0 0.0
2014-Jun-05 00:33N 34°60' E 139°51'0 0.0
2014-Jun-04 23:33N 34°60' E 139°51'1 0.8
2014-Jun-04 22:33N 34°60' E 139°50'10 9.6
2014-Jun-04 21:33N 34°58' E 139°39'1010.3
2014-Jun-04 20:33N 34°52' E 139°28'226 9.4
2014-Jun-03 20:31N 34°14' E 134°57'1414.3
2014-Jun-03 19:33N 34°28' E 135°02'10 8.8
2014-Jun-03 18:28N 34°35' E 134°55'233 5.0
2014-Jun-01 20:14N 33°54' E 130°17'913.8
2014-Jun-01 19:33N 33°49' E 130°08'1615.5
2014-Jun-01 18:32N 33°41' E 129°52'  

Dump ship's entire track history